Time;durP1;ratioP1;P1;durP2;ratioP2;P2;SDS_P1;SDS_P2;PMS_P1;PMS_P2;Temp;Humidity;BMP_temperature;BMP_pressure;BME280_temperature;BME280_humidity;BME280_pressure;Samples;Min_cycle;Max_cycle;Signal;HPM_P1;HPM_P2
2022/07/27 00:02:55;;;;;;;;;;;16.00;99.90;;;;;;8397855;28;19920;-67
2022/07/27 00:06:57;;;;;;;;;;;15.90;99.90;;;;;;8380876;28;19927;-67
2022/07/27 00:10:59;;;;;;;;;;;15.80;99.90;;;;;;8399280;28;19931;-67
2022/07/27 00:15:00;;;;;;;;;;;15.70;99.90;;;;;;8395685;28;19928;-67
2022/07/27 00:19:02;;;;;;;;;;;15.70;99.90;;;;;;8396743;28;19924;-67
2022/07/27 00:23:04;;;;;;;;;;;15.60;99.90;;;;;;8397360;28;20251;-67
2022/07/27 00:27:07;;;;;;;;;;;15.50;99.90;;;;;;8394607;28;19920;-67
2022/07/27 00:31:08;;;;;;;;;;;15.50;99.90;;;;;;8398042;28;19927;-67
2022/07/27 00:35:11;;;;;;;;;;;15.40;99.90;;;;;;8392537;28;20464;-67
2022/07/27 00:39:12;;;;;;;;;;;15.30;99.90;;;;;;8389851;28;20380;-67
2022/07/27 00:43:14;;;;;;;;;;;15.30;99.90;;;;;;8396448;28;19939;-67
2022/07/27 00:47:16;;;;;;;;;;;15.20;99.90;;;;;;8397149;28;19924;-67
2022/07/27 00:51:18;;;;;;;;;;;15.20;99.90;;;;;;8396509;28;19921;-67
2022/07/27 00:55:20;;;;;;;;;;;15.10;99.90;;;;;;8396185;28;20257;-67
2022/07/27 00:59:21;;;;;;;;;;;15.10;99.90;;;;;;8396995;28;20331;-67
2022/07/27 01:03:23;;;;;;;;;;;15.10;99.90;;;;;;8394820;28;20418;-67
2022/07/27 01:07:31;;;;;;;;;;;15.00;99.90;;;;;;8383692;28;20375;-67
2022/07/27 01:11:32;;;;;;;;;;;14.90;99.90;;;;;;8394046;28;19924;-67
2022/07/27 01:15:36;;;;;;;;;;;14.90;99.90;;;;;;8396179;28;19920;-67
2022/07/27 01:19:38;;;;;;;;;;;14.80;99.90;;;;;;8396274;28;19974;-67
2022/07/27 01:23:39;;;;;;;;;;;14.70;99.90;;;;;;8394896;28;19920;-67
2022/07/27 01:27:41;;;;;;;;;;;14.70;99.90;;;;;;8396291;28;20362;-67
2022/07/27 01:31:43;;;;;;;;;;;14.60;99.90;;;;;;8395224;28;20391;-67
2022/07/27 01:35:45;;;;;;;;;;;14.60;99.90;;;;;;8369688;28;19966;-67
2022/07/27 01:39:46;;;;;;;;;;;14.50;99.90;;;;;;8381630;28;19944;-67
2022/07/27 01:43:48;;;;;;;;;;;14.50;99.90;;;;;;8394780;28;19974;-67
2022/07/27 01:47:50;;;;;;;;;;;14.50;99.90;;;;;;8395255;28;19920;-67
2022/07/27 01:51:51;;;;;;;;;;;14.40;99.90;;;;;;8393808;28;19920;-67
2022/07/27 01:55:53;;;;;;;;;;;14.40;99.90;;;;;;8394938;28;19924;-67
2022/07/27 01:59:54;;;;;;;;;;;14.30;99.90;;;;;;8394583;28;19920;-67
2022/07/27 02:03:56;;;;;;;;;;;14.30;99.90;;;;;;8375451;28;20231;-67
2022/07/27 02:07:58;;;;;;;;;;;14.30;99.90;;;;;;8393513;28;19920;-67
2022/07/27 02:16:20;;;;;;;;;;;14.20;99.90;;;;;;8388544;28;19920;-67
2022/07/27 02:20:23;;;;;;;;;;;14.20;99.90;;;;;;8376929;28;19920;-67
2022/07/27 02:24:24;;;;;;;;;;;14.10;99.90;;;;;;8392649;28;19927;-67
2022/07/27 02:28:26;;;;;;;;;;;14.10;99.90;;;;;;8394233;28;19924;-67
2022/07/27 02:42:40;;;;;;;;;;;13.90;99.90;;;;;;8353589;28;19924;-67
2022/07/27 02:46:42;;;;;;;;;;;13.90;99.90;;;;;;8360525;28;20280;-67
2022/07/27 02:50:44;;;;;;;;;;;13.80;99.90;;;;;;8360872;28;19931;-67
2022/07/27 02:54:45;;;;;;;;;;;13.70;99.90;;;;;;8359303;28;19924;-67
2022/07/27 02:58:47;;;;;;;;;;;13.70;99.90;;;;;;8360253;28;20791;-67
2022/07/27 03:02:49;;;;;;;;;;;13.60;99.90;;;;;;8358622;28;20375;-67
2022/07/27 03:06:51;;;;;;;;;;;13.60;99.90;;;;;;8364845;28;19928;-67
2022/07/27 03:10:52;;;;;;;;;;;13.50;99.90;;;;;;8365454;28;20378;-67
2022/07/27 03:14:55;;;;;;;;;;;13.50;99.90;;;;;;8366532;28;19928;-67
2022/07/27 03:18:56;;;;;;;;;;;13.40;99.90;;;;;;8364975;28;19921;-67
2022/07/27 03:22:58;;;;;;;;;;;13.40;99.90;;;;;;8365589;28;19920;-67
2022/07/27 03:27:00;;;;;;;;;;;13.30;99.90;;;;;;8366253;28;19921;-67
2022/07/27 03:31:02;;;;;;;;;;;13.30;99.90;;;;;;8365811;28;20015;-67
2022/07/27 03:35:04;;;;;;;;;;;13.30;99.90;;;;;;8363145;28;19932;-67
2022/07/27 03:39:06;;;;;;;;;;;13.20;99.90;;;;;;8361147;28;20322;-67
2022/07/27 03:43:08;;;;;;;;;;;13.10;99.90;;;;;;8398271;28;19932;-67
2022/07/27 03:47:09;;;;;;;;;;;13.10;99.90;;;;;;8399954;28;19931;-67
2022/07/27 03:51:11;;;;;;;;;;;13.00;99.90;;;;;;8398142;28;19921;-67
2022/07/27 03:55:13;;;;;;;;;;;13.00;99.90;;;;;;8399050;28;19921;-67
2022/07/27 03:59:14;;;;;;;;;;;13.00;99.90;;;;;;8399066;28;19931;-67
2022/07/27 04:03:16;;;;;;;;;;;12.90;99.90;;;;;;8378900;28;19920;-67
2022/07/27 04:07:18;;;;;;;;;;;12.90;99.90;;;;;;8397025;28;20283;-67
2022/07/27 04:11:20;;;;;;;;;;;12.80;99.90;;;;;;8397774;28;19920;-67
2022/07/27 04:15:21;;;;;;;;;;;12.80;99.90;;;;;;8396038;28;19920;-67
2022/07/27 04:19:23;;;;;;;;;;;12.70;99.90;;;;;;8397973;28;19920;-67
2022/07/27 04:23:25;;;;;;;;;;;12.70;99.90;;;;;;8384308;28;20367;-67
2022/07/27 04:27:26;;;;;;;;;;;12.70;99.90;;;;;;8398258;28;19920;-68
2022/07/27 04:31:28;;;;;;;;;;;12.70;99.90;;;;;;8397174;28;20125;-67
2022/07/27 04:35:30;;;;;;;;;;;12.70;99.90;;;;;;8389468;28;20268;-67
2022/07/27 04:39:31;;;;;;;;;;;12.70;99.90;;;;;;8384712;28;19946;-67
2022/07/27 04:43:33;;;;;;;;;;;12.70;99.90;;;;;;8396640;28;19920;-67
2022/07/27 04:57:42;;;;;;;;;;;12.80;99.90;;;;;;8395520;28;19919;-67
2022/07/27 05:01:44;;;;;;;;;;;12.70;99.90;;;;;;8395546;28;19931;-67
2022/07/27 05:05:46;;;;;;;;;;;12.70;99.90;;;;;;8388203;28;19932;-67
2022/07/27 05:09:50;;;;;;;;;;;12.80;99.90;;;;;;8396800;28;19924;-67
2022/07/27 05:13:51;;;;;;;;;;;12.80;99.90;;;;;;8388004;28;19920;-67
2022/07/27 05:17:53;;;;;;;;;;;12.90;99.90;;;;;;8395974;28;20352;-67
2022/07/27 05:21:54;;;;;;;;;;;13.00;99.90;;;;;;8395143;28;20248;-67
2022/07/27 05:25:56;;;;;;;;;;;13.00;99.90;;;;;;8395696;28;19920;-67
2022/07/27 05:29:58;;;;;;;;;;;13.10;99.90;;;;;;8394781;28;19925;-67
2022/07/27 05:33:59;;;;;;;;;;;13.20;99.90;;;;;;8394140;28;19931;-67
2022/07/27 05:38:01;;;;;;;;;;;13.20;99.90;;;;;;8380180;28;19924;-67
2022/07/27 05:42:03;;;;;;;;;;;13.40;99.90;;;;;;8392052;28;19931;-67
2022/07/27 05:46:05;;;;;;;;;;;13.50;99.90;;;;;;8395231;28;19920;-67
2022/07/27 05:50:14;;;;;;;;;;;13.60;99.90;;;;;;8442005;27;19916;-67
2022/07/27 05:54:17;;;;;;;;;;;13.70;99.90;;;;;;8414570;28;19928;-68
2022/07/27 05:58:18;;;;;;;;;;;13.80;99.90;;;;;;8414850;28;19928;-67
2022/07/27 06:02:20;;;;;;;;;;;13.90;99.90;;;;;;8413685;28;19932;-67
2022/07/27 06:10:42;;;;;;;;;;;14.00;99.90;;;;;;8413570;28;19932;-68
2022/07/27 06:14:44;;;;;;;;;;;14.10;99.90;;;;;;8413796;28;19925;-68
2022/07/27 06:18:45;;;;;;;;;;;14.20;99.90;;;;;;8413315;28;19935;-68
2022/07/27 06:22:48;;;;;;;;;;;14.30;99.90;;;;;;8412313;28;19924;-67
2022/07/27 06:26:50;;;;;;;;;;;14.50;99.90;;;;;;8417104;28;20380;-68
2022/07/27 06:30:54;;;;;;;;;;;14.70;99.90;;;;;;8414924;28;19928;-68
2022/07/27 06:34:56;;;;;;;;;;;14.90;99.90;;;;;;8413799;28;20368;-67
2022/07/27 06:38:58;;;;;;;;;;;15.20;99.90;;;;;;8416049;28;20392;-67
2022/07/27 06:42:59;;;;;;;;;;;15.40;99.90;;;;;;8412330;28;19931;-67
2022/07/27 06:47:01;;;;;;;;;;;15.60;99.90;;;;;;8412414;28;20132;-68
2022/07/27 06:51:03;;;;;;;;;;;15.90;99.90;;;;;;8413153;28;19924;-67
2022/07/27 07:00:09;;;;;;;;;;;16.20;99.90;;;;;;8398926;28;19970;-67
2022/07/27 07:04:10;;;;;;;;;;;16.40;99.90;;;;;;8388658;28;20030;-68
2022/07/27 07:08:13;;;;;;;;;;;16.50;99.90;;;;;;8405539;28;19929;-68
2022/07/27 07:12:17;;;;;;;;;;;16.60;99.90;;;;;;8389356;28;20379;-68
2022/07/27 07:16:18;;;;;;;;;;;16.70;99.90;;;;;;8389420;28;19930;-67
2022/07/27 07:20:21;;;;;;;;;;;16.80;99.90;;;;;;8389277;28;19985;-68
2022/07/27 07:24:22;;;;;;;;;;;16.80;99.90;;;;;;8389809;28;19928;-68
2022/07/27 07:33:36;;;;;;;;;;;17.00;99.90;;;;;;8387839;28;20437;-68
2022/07/27 07:37:38;;;;;;;;;;;17.10;99.90;;;;;;8389724;28;19982;-68
2022/07/27 07:41:40;;;;;;;;;;;17.20;99.90;;;;;;8387562;28;20295;-67
2022/07/27 07:45:41;;;;;;;;;;;17.40;99.90;;;;;;8388182;28;19951;-68
2022/07/27 07:49:51;;;;;;;;;;;17.40;99.90;;;;;;8389868;28;20058;-68
2022/07/27 07:53:53;;;;;;;;;;;17.50;99.90;;;;;;8382982;28;19929;-67
2022/07/27 07:57:55;;;;;;;;;;;17.60;99.90;;;;;;8388297;28;19936;-68
2022/07/27 08:01:57;;;;;;;;;;;17.60;99.90;;;;;;8388108;28;19932;-68
2022/07/27 08:05:58;;;;;;;;;;;17.80;99.90;;;;;;8387489;28;19925;-67
2022/07/27 08:10:00;;;;;;;;;;;17.80;99.90;;;;;;8385590;28;20372;-68
2022/07/27 08:14:02;;;;;;;;;;;17.70;99.90;;;;;;8387556;28;19928;-68
2022/07/27 08:18:04;;;;;;;;;;;17.60;99.90;;;;;;8389038;28;19931;-68
2022/07/27 08:22:06;;;;;;;;;;;17.40;99.90;;;;;;8386753;28;19970;-68
2022/07/27 08:46:00;;;;;;;;;;;17.60;99.90;;;;;;8387312;28;19923;-67
2022/07/27 08:50:02;;;;;;;;;;;17.70;99.90;;;;;;8385668;28;19975;-67
2022/07/27 08:54:04;;;;;;;;;;;17.90;99.90;;;;;;8385583;28;19925;-67
2022/07/27 08:58:07;;;;;;;;;;;18.00;99.90;;;;;;8388571;28;19931;-67
2022/07/27 09:02:09;;;;;;;;;;;18.00;99.90;;;;;;8418570;27;19924;-67
2022/07/27 09:06:11;;;;;;;;;;;18.10;99.90;;;;;;8389603;28;19925;-67
2022/07/27 09:10:27;;;;;;;;;;;18.20;99.90;;;;;;8385074;28;19932;-67
2022/07/27 09:14:30;;;;;;;;;;;18.30;99.90;;;;;;8386803;28;19924;-68
2022/07/27 09:18:36;;;;;;;;;;;18.40;99.90;;;;;;8386678;28;20607;-68
2022/07/27 09:22:44;;;;;;;;;;;18.50;99.90;;;;;;8387532;28;19928;-68
2022/07/27 09:26:45;;;;;;;;;;;18.60;99.90;;;;;;8386935;28;20004;-67
2022/07/27 09:30:47;;;;;;;;;;;18.80;99.90;;;;;;8385461;28;19925;-68
2022/07/27 09:34:49;;;;;;;;;;;18.90;99.90;;;;;;8386826;28;19954;-68
2022/07/27 09:38:51;;;;;;;;;;;18.90;99.90;;;;;;8385071;28;19932;-66
2022/07/27 09:48:07;;;;;;;;;;;18.60;99.90;;;;;;8377915;28;20011;-65
2022/07/27 09:52:20;;;;;;;;;;;18.40;99.90;;;;;;8384853;28;19925;-66
2022/07/27 09:56:26;;;;;;;;;;;18.40;99.90;;;;;;8386865;28;20301;-66
2022/07/27 10:00:28;;;;;;;;;;;18.40;99.90;;;;;;8418984;27;19981;-66
2022/07/27 10:04:31;;;;;;;;;;;18.40;99.90;;;;;;8385404;28;19929;-65
2022/07/27 10:08:33;;;;;;;;;;;18.40;99.90;;;;;;8384849;28;19933;-66
2022/07/27 10:12:34;;;;;;;;;;;18.40;99.90;;;;;;8383600;28;19935;-66
2022/07/27 10:16:38;;;;;;;;;;;18.50;99.90;;;;;;8387927;28;19928;-66
2022/07/27 10:20:41;;;;;;;;;;;18.70;99.90;;;;;;8385417;28;19931;-66
2022/07/27 10:24:42;;;;;;;;;;;18.90;99.90;;;;;;8385659;28;20318;-66
2022/07/27 10:28:57;;;;;;;;;;;19.00;99.90;;;;;;8386138;28;20321;-65
2022/07/27 10:33:02;;;;;;;;;;;19.10;99.90;;;;;;8386055;28;19932;-66
2022/07/27 10:47:25;;;;;;;;;;;19.00;99.90;;;;;;8390858;28;20398;-66
2022/07/27 10:51:33;;;;;;;;;;;19.00;99.90;;;;;;8390106;28;19928;-65
2022/07/27 10:55:35;;;;;;;;;;;18.90;99.90;;;;;;8394605;28;19986;-65
2022/07/27 11:04:48;;;;;;;;;;;18.90;99.90;;;;;;8389714;28;20307;-65
2022/07/27 11:08:50;;;;;;;;;;;18.80;99.90;;;;;;8390629;28;20027;-65
2022/07/27 11:13:12;;;;;;;;;;;18.80;99.90;;;;;;8390739;28;19962;-65
2022/07/27 11:17:15;;;;;;;;;;;18.80;99.90;;;;;;8391113;28;19925;-65
2022/07/27 11:21:37;;;;;;;;;;;19.00;99.90;;;;;;8388266;28;20328;-66
2022/07/27 11:25:39;;;;;;;;;;;19.20;99.90;;;;;;8390932;28;19936;-66
2022/07/27 11:29:41;;;;;;;;;;;19.40;99.90;;;;;;8389499;28;20375;-66
2022/07/27 11:33:54;;;;;;;;;;;19.70;99.90;;;;;;8389691;28;19925;-66
2022/07/27 11:38:00;;;;;;;;;;;19.90;99.90;;;;;;8388805;28;20466;-65
2022/07/27 11:42:02;;;;;;;;;;;20.00;99.90;;;;;;8387762;28;19932;-66
2022/07/27 11:46:15;;;;;;;;;;;20.00;99.90;;;;;;8389248;28;19924;-66
2022/07/27 11:50:17;;;;;;;;;;;19.90;99.90;;;;;;8390509;28;20447;-65
2022/07/27 11:54:19;;;;;;;;;;;19.90;99.90;;;;;;8422406;27;19950;-66
2022/07/27 11:58:21;;;;;;;;;;;19.80;99.90;;;;;;8388658;28;19924;-66
2022/07/27 12:02:25;;;;;;;;;;;19.80;99.90;;;;;;8387870;28;19928;-66
2022/07/27 12:06:27;;;;;;;;;;;19.70;99.90;;;;;;8388751;28;19932;-66
2022/07/27 12:10:29;;;;;;;;;;;19.70;99.90;;;;;;8387043;28;19928;-66
2022/07/27 12:14:41;;;;;;;;;;;19.70;99.90;;;;;;8390014;28;20342;-65
2022/07/27 12:18:43;;;;;;;;;;;19.70;99.90;;;;;;8387059;28;20410;-66
2022/07/27 12:22:52;;;;;;;;;;;19.80;99.90;;;;;;8386371;28;19924;-65
2022/07/27 12:27:04;;;;;;;;;;;19.80;99.90;;;;;;8402052;28;19935;-66
2022/07/27 12:31:15;;;;;;;;;;;19.80;99.90;;;;;;8388446;28;19924;-66
2022/07/27 12:35:21;;;;;;;;;;;19.80;99.90;;;;;;8390072;28;19928;-66
2022/07/27 12:39:29;;;;;;;;;;;19.80;99.90;;;;;;8388439;28;19928;-66
2022/07/27 12:43:31;;;;;;;;;;;19.80;99.90;;;;;;8418814;27;19928;-65
2022/07/27 12:47:39;;;;;;;;;;;19.70;99.90;;;;;;8387708;28;19974;-65
2022/07/27 12:51:41;;;;;;;;;;;19.60;99.90;;;;;;8419849;27;20303;-66
2022/07/27 12:55:42;;;;;;;;;;;19.60;99.90;;;;;;8387116;28;20323;-66
2022/07/27 12:59:44;;;;;;;;;;;19.60;99.90;;;;;;8386242;28;19929;-66
2022/07/27 13:03:46;;;;;;;;;;;19.50;99.90;;;;;;8384112;28;20375;-65
2022/07/27 13:07:48;;;;;;;;;;;19.50;99.90;;;;;;8386530;28;20309;-65
2022/07/27 13:11:49;;;;;;;;;;;19.50;99.90;;;;;;8385867;28;19924;-65
2022/07/27 13:15:51;;;;;;;;;;;19.50;99.90;;;;;;8386992;28;19925;-66
2022/07/27 13:19:53;;;;;;;;;;;19.60;99.90;;;;;;8385634;28;20395;-65
2022/07/27 13:23:54;;;;;;;;;;;19.70;99.90;;;;;;8385074;28;19928;-65
2022/07/27 13:27:56;;;;;;;;;;;19.70;99.90;;;;;;8386889;28;19932;-65
2022/07/27 13:31:58;;;;;;;;;;;19.80;99.90;;;;;;8389800;28;19935;-66
2022/07/27 13:35:59;;;;;;;;;;;19.90;99.90;;;;;;8384817;28;20287;-66
2022/07/27 13:40:02;;;;;;;;;;;19.90;99.90;;;;;;8384555;28;19932;-66
2022/07/27 13:44:04;;;;;;;;;;;20.00;99.90;;;;;;8385348;28;19979;-66
2022/07/27 13:48:06;;;;;;;;;;;20.10;99.90;;;;;;8386458;28;19936;-66
2022/07/27 13:52:08;;;;;;;;;;;20.20;99.90;;;;;;8385203;28;19924;-66
2022/07/27 13:56:10;;;;;;;;;;;20.30;99.90;;;;;;8385119;28;20380;-66
2022/07/27 14:00:12;;;;;;;;;;;20.30;99.90;;;;;;8384798;28;19930;-65
2022/07/27 14:04:13;;;;;;;;;;;20.40;99.90;;;;;;8384528;28;19940;-65
2022/07/27 14:08:16;;;;;;;;;;;20.40;99.90;;;;;;8385156;28;19924;-65
2022/07/27 14:12:18;;;;;;;;;;;20.60;99.90;;;;;;8390643;28;19940;-65
2022/07/27 14:16:20;;;;;;;;;;;20.60;99.90;;;;;;8391726;28;19940;-65
2022/07/27 14:20:22;;;;;;;;;;;20.60;99.90;;;;;;8391456;28;19990;-66
2022/07/27 14:24:23;;;;;;;;;;;20.60;99.90;;;;;;8391339;28;19935;-65
2022/07/27 14:28:26;;;;;;;;;;;20.70;99.90;;;;;;8393193;28;19928;-65
2022/07/27 14:32:27;;;;;;;;;;;20.90;99.90;;;;;;8390120;28;19924;-66
2022/07/27 14:36:29;;;;;;;;;;;21.00;99.90;;;;;;8390164;28;19925;-65
2022/07/27 14:40:30;;;;;;;;;;;21.20;99.90;;;;;;8389856;28;19924;-65
2022/07/27 14:44:33;;;;;;;;;;;21.40;99.90;;;;;;8390688;28;20299;-65
2022/07/27 14:48:35;;;;;;;;;;;21.60;99.90;;;;;;8390164;28;19936;-65
2022/07/27 14:52:57;;;;;;;;;;;21.70;99.90;;;;;;8389587;28;19967;-65
2022/07/27 14:56:58;;;;;;;;;;;21.70;99.90;;;;;;8389719;28;20292;-65
2022/07/27 15:01:00;;;;;;;;;;;21.70;99.90;;;;;;8389236;28;19925;-65
2022/07/27 15:05:02;;;;;;;;;;;21.60;99.90;;;;;;8389946;28;19952;-65
2022/07/27 15:09:05;;;;;;;;;;;21.30;99.90;;;;;;8390453;28;20401;-66
2022/07/27 15:13:06;;;;;;;;;;;21.20;99.90;;;;;;8389135;28;19954;-66
2022/07/27 15:17:08;;;;;;;;;;;21.20;99.90;;;;;;8390467;28;19932;-65
2022/07/27 15:21:12;;;;;;;;;;;21.30;99.90;;;;;;8387972;28;19993;-66
2022/07/27 15:25:14;;;;;;;;;;;21.30;99.90;;;;;;8391289;28;19928;-66
2022/07/27 15:29:16;;;;;;;;;;;21.40;99.90;;;;;;8390067;28;19932;-65
2022/07/27 15:33:17;;;;;;;;;;;21.50;99.90;;;;;;8388145;28;19929;-65
2022/07/27 15:37:19;;;;;;;;;;;21.70;99.90;;;;;;8388588;28;19932;-66
2022/07/27 15:41:21;;;;;;;;;;;21.70;99.90;;;;;;8388012;28;19959;-65
2022/07/27 15:45:22;;;;;;;;;;;21.90;99.90;;;;;;8391390;28;19933;-65
2022/07/27 15:54:28;;;;;;;;;;;22.00;99.90;;;;;;8388967;28;19958;-65
2022/07/27 15:58:34;;;;;;;;;;;22.20;99.90;;;;;;8390234;28;20383;-65
2022/07/27 16:02:35;;;;;;;;;;;22.20;99.90;;;;;;8388573;28;19928;-66
2022/07/27 16:06:37;;;;;;;;;;;22.10;99.90;;;;;;8390030;28;19925;-66
2022/07/27 16:20:47;;;;;;;;;;;21.60;99.90;;;;;;8387483;28;19936;-65
2022/07/27 16:24:49;;;;;;;;;;;21.70;99.90;;;;;;8421360;27;19931;-66
2022/07/27 16:28:51;;;;;;;;;;;21.90;99.90;;;;;;8389016;28;19925;-65
2022/07/27 16:32:53;;;;;;;;;;;22.10;99.90;;;;;;8385536;28;19931;-65
2022/07/27 16:36:55;;;;;;;;;;;22.10;99.90;;;;;;8386331;28;19940;-65
2022/07/27 16:40:57;;;;;;;;;;;22.40;99.90;;;;;;8385808;28;19931;-65
2022/07/27 16:44:59;;;;;;;;;;;22.90;99.90;;;;;;8387588;28;19939;-65
2022/07/27 16:49:00;;;;;;;;;;;23.30;99.90;;;;;;8387963;28;19965;-66
2022/07/27 16:53:02;;;;;;;;;;;23.50;99.90;;;;;;8385661;28;19929;-66
2022/07/27 16:57:04;;;;;;;;;;;23.70;99.90;;;;;;8390570;28;19973;-65
2022/07/27 17:01:05;;;;;;;;;;;23.90;99.90;;;;;;8386640;28;19928;-65
2022/07/27 17:05:08;;;;;;;;;;;24.00;99.90;;;;;;8386408;28;19928;-66
2022/07/27 17:09:10;;;;;;;;;;;24.00;99.90;;;;;;8386833;28;19920;-66
2022/07/27 17:38:29;;;;;;;;;;;23.80;99.90;;;;;;8386566;28;19916;-65
2022/07/27 17:42:31;;;;;;;;;;;23.40;99.90;;;;;;8384164;28;19920;-66
2022/07/27 17:46:32;;;;;;;;;;;23.20;99.90;;;;;;8385867;28;20351;-65
2022/07/27 17:50:39;;;;;;;;;;;22.90;99.90;;;;;;8384088;28;19927;-66
2022/07/27 17:54:40;;;;;;;;;;;22.70;99.90;;;;;;8385682;28;19927;-66
2022/07/27 17:58:42;;;;;;;;;;;22.60;99.90;;;;;;8385822;28;19920;-66
2022/07/27 18:02:44;;;;;;;;;;;22.40;99.90;;;;;;8416627;27;19921;-65
2022/07/27 18:06:45;;;;;;;;;;;22.20;99.90;;;;;;8386377;28;19928;-66
2022/07/27 18:20:55;;;;;;;;;;;21.70;99.90;;;;;;8384442;28;19939;-65
2022/07/27 18:24:56;;;;;;;;;;;21.50;99.90;;;;;;8385514;28;20380;-66
2022/07/27 18:28:58;;;;;;;;;;;21.40;99.90;;;;;;8386243;28;19924;-66
2022/07/27 18:33:00;;;;;;;;;;;21.30;99.90;;;;;;8384071;28;19921;-66
2022/07/27 18:37:01;;;;;;;;;;;21.30;99.90;;;;;;8383942;28;19927;-65
2022/07/27 18:41:03;;;;;;;;;;;21.20;99.90;;;;;;8382714;28;19924;-65
2022/07/27 18:45:06;;;;;;;;;;;21.20;99.90;;;;;;8384730;28;19927;-66
2022/07/27 18:49:07;;;;;;;;;;;21.20;99.90;;;;;;8384578;28;19921;-66
2022/07/27 18:53:09;;;;;;;;;;;21.20;99.90;;;;;;8383438;28;19927;-65
2022/07/27 18:57:11;;;;;;;;;;;21.20;99.90;;;;;;8391206;28;19928;-66
2022/07/27 19:01:12;;;;;;;;;;;21.10;99.90;;;;;;8389081;28;20417;-66
2022/07/27 19:05:15;;;;;;;;;;;21.10;99.90;;;;;;8393459;28;20026;-66
2022/07/27 19:09:20;;;;;;;;;;;21.00;99.90;;;;;;8392766;28;20352;-65
2022/07/27 19:13:22;;;;;;;;;;;20.90;99.90;;;;;;8388878;28;19947;-66
2022/07/27 19:17:23;;;;;;;;;;;20.90;99.90;;;;;;8390927;28;19921;-66
2022/07/27 19:21:25;;;;;;;;;;;20.80;99.90;;;;;;8388575;28;19954;-65
2022/07/27 19:25:29;;;;;;;;;;;20.70;99.90;;;;;;8423818;27;19931;-66
2022/07/27 19:39:37;;;;;;;;;;;20.40;99.90;;;;;;8387965;28;19923;-66
2022/07/27 19:54:19;;;;;;;;;;;20.20;99.90;;;;;;8364762;28;19935;-66
2022/07/27 19:58:21;;;;;;;;;;;20.10;99.90;;;;;;8389063;28;19920;-66
2022/07/27 20:02:24;;;;;;;;;;;20.00;99.90;;;;;;8388381;28;20375;-66
2022/07/27 20:06:25;;;;;;;;;;;20.00;99.90;;;;;;8389641;28;20391;-66
2022/07/27 20:10:27;;;;;;;;;;;19.90;99.90;;;;;;8421511;27;20257;-66
2022/07/27 20:14:29;;;;;;;;;;;19.90;99.90;;;;;;8388745;28;19935;-65
2022/07/27 20:18:30;;;;;;;;;;;19.80;99.90;;;;;;8388154;28;20370;-65
2022/07/27 20:22:32;;;;;;;;;;;19.70;99.90;;;;;;8388206;28;20304;-66
2022/07/27 20:26:34;;;;;;;;;;;19.60;99.90;;;;;;8389124;28;20296;-66
2022/07/27 20:35:39;;;;;;;;;;;19.50;99.90;;;;;;8387375;28;19915;-66
2022/07/27 20:49:41;;;;;;;;;;;19.30;99.90;;;;;;8385802;28;19918;-65
2022/07/27 20:53:43;;;;;;;;;;;19.20;99.90;;;;;;8387827;28;19927;-65
2022/07/27 20:57:44;;;;;;;;;;;19.10;99.90;;;;;;8388250;28;19924;-66
2022/07/27 21:01:46;;;;;;;;;;;19.10;99.90;;;;;;8393739;28;19924;-66
2022/07/27 21:05:48;;;;;;;;;;;19.00;99.90;;;;;;8426173;28;19920;-66
2022/07/27 21:09:49;;;;;;;;;;;19.00;99.90;;;;;;8427073;28;19924;-66
2022/07/27 21:13:52;;;;;;;;;;;18.90;99.90;;;;;;8425465;28;19920;-66
2022/07/27 21:17:54;;;;;;;;;;;18.90;99.90;;;;;;8428426;28;19926;-66
2022/07/27 21:26:58;;;;;;;;;;;18.70;99.90;;;;;;8427580;28;19914;-65
2022/07/27 21:31:04;;;;;;;;;;;18.60;99.90;;;;;;8426703;28;19923;-66
2022/07/27 21:35:06;;;;;;;;;;;18.60;99.90;;;;;;8426800;28;19924;-66
2022/07/27 21:39:08;;;;;;;;;;;18.50;99.90;;;;;;8419833;28;19920;-66
2022/07/27 21:48:12;;;;;;;;;;;18.40;99.90;;;;;;8424372;28;20400;-66
2022/07/27 21:52:14;;;;;;;;;;;18.30;99.90;;;;;;8426257;28;20283;-66
2022/07/27 21:56:16;;;;;;;;;;;18.20;99.90;;;;;;8425509;28;19931;-66
2022/07/27 22:00:22;;;;;;;;;;;18.20;99.90;;;;;;8426764;28;19924;-66
2022/07/27 22:04:24;;;;;;;;;;;18.20;99.90;;;;;;8420823;28;19931;-66
2022/07/27 22:08:25;;;;;;;;;;;18.10;99.90;;;;;;8424387;28;20279;-66
2022/07/27 22:12:27;;;;;;;;;;;18.10;99.90;;;;;;8426095;28;20014;-66
2022/07/27 22:16:29;;;;;;;;;;;18.10;99.90;;;;;;8424161;28;19924;-66
2022/07/27 22:20:31;;;;;;;;;;;18.10;99.90;;;;;;8427042;28;19955;-66
2022/07/27 22:24:32;;;;;;;;;;;18.00;99.90;;;;;;8425616;28;20295;-66
2022/07/27 22:28:34;;;;;;;;;;;18.00;99.90;;;;;;8426405;28;20473;-66
2022/07/27 22:32:35;;;;;;;;;;;18.00;99.90;;;;;;8431970;28;19919;-66
2022/07/27 22:36:37;;;;;;;;;;;18.00;99.90;;;;;;8422126;28;19920;-66
2022/07/27 22:40:39;;;;;;;;;;;18.00;99.90;;;;;;8430437;28;19920;-66
2022/07/27 22:44:41;;;;;;;;;;;17.90;99.90;;;;;;8431131;28;19927;-66
2022/07/27 22:48:42;;;;;;;;;;;17.90;99.90;;;;;;8432626;28;19919;-66
2022/07/27 22:52:44;;;;;;;;;;;17.80;99.90;;;;;;8433308;28;20005;-65
2022/07/27 22:56:46;;;;;;;;;;;17.80;99.90;;;;;;8431331;28;19920;-65
2022/07/27 23:00:48;;;;;;;;;;;17.70;99.90;;;;;;8432430;28;20279;-66
2022/07/27 23:04:49;;;;;;;;;;;17.70;99.90;;;;;;8430940;28;19930;-65
2022/07/27 23:08:51;;;;;;;;;;;17.60;99.90;;;;;;8432158;28;19920;-65
2022/07/27 23:12:53;;;;;;;;;;;17.60;99.90;;;;;;8429292;28;20011;-66
2022/07/27 23:21:51;;;;;;;;;;;17.40;99.90;;;;;;8431379;28;19962;-66
2022/07/27 23:25:57;;;;;;;;;;;17.40;99.90;;;;;;8430541;28;19927;-66
2022/07/27 23:29:59;;;;;;;;;;;17.30;99.90;;;;;;8431982;28;19935;-66
2022/07/27 23:34:01;;;;;;;;;;;17.20;99.90;;;;;;8429775;28;19920;-66
2022/07/27 23:38:15;;;;;;;;;;;17.20;99.90;;;;;;8418252;28;19927;-66
2022/07/27 23:42:16;;;;;;;;;;;17.20;99.90;;;;;;8429504;28;19931;-66
2022/07/27 23:56:24;;;;;;;;;;;17.00;99.90;;;;;;8394291;28;19939;-66
